Independence — WDD6659 — position and weather

sailwx.info

Track history (hours):
 
Tides and Currents Weather Stations Pressure Air Temp Water Temp Dewpoint Dewpoint Depression Visibility Wind Speed Wind Dir Waves Ship Positions

Independence

Owner: Sortwell, Inc. DBA AmNav Maritime Services, Oakland, CA. More information available from US FCC via Universal Licensing System and Coast Guard Vessel Documentation Center.

Last reported at 2016-Jul-28 10:30 UTC. Time now 2016-Jul-28 12:27 UTC.
Position N 33°44' W 118°17'.

Length 24 m; draft 4.9 m.

Type: Tug. MMSI: 367175860.

Date/timePositionNaut miles runAvg speedWind from/ knotsBaromVisibWave heightAir tempDewpointWater temp
2016-Jul-28 10:30N 33°44' W 118°17'0 0.0
2016-Jul-28 07:32N 33°44' W 118°17'0 0.0
2016-Jul-28 05:33N 33°44' W 118°17'0 0.0
2016-Jul-28 02:27N 33°44' W 118°17'0 0.0
2016-Jul-28 00:29N 33°44' W 118°17'0 0.0
2016-Jul-27 23:23N 33°44' W 118°17'0 0.0
2016-Jul-27 22:14N 33°44' W 118°17'0 0.0
2016-Jul-27 15:33N 33°44' W 118°17'0 0.0
2016-Jul-27 14:14N 33°44' W 118°17'5 6.8
2016-Jul-27 13:33N 33°44' W 118°11'2 1.7
2016-Jul-27 12:32N 33°44' W 118°09'6 6.2
2016-Jul-27 11:32N 33°43' W 118°16'0 0.4
2016-Jul-27 10:30N 33°44' W 118°16'0 0.0
2016-Jul-27 09:31N 33°44' W 118°16'0 0.0
2016-Jul-27 08:32N 33°44' W 118°16'0 0.0
2016-Jul-27 06:11N 33°44' W 118°16'0 0.0
2016-Jul-27 05:31N 33°44' W 118°16'0 0.0
2016-Jul-27 04:32N 33°44' W 118°16'0 0.1
2016-Jul-27 03:21N 33°44' W 118°17'0 0.0
2016-Jul-27 02:28N 33°44' W 118°17'0 0.0
2016-Jul-27 01:28N 33°44' W 118°17'0 0.0
2016-Jul-27 00:30N 33°44' W 118°17'0 0.0
2016-Jul-26 23:33N 33°44' W 118°17'0 0.0
2016-Jul-26 22:32N 33°44' W 118°17'2 1.8
2016-Jul-26 21:33N 33°46' W 118°16'2 2.0
2016-Jul-26 20:31N 33°43' W 118°16'1 1.1
2016-Jul-26 19:33N 33°43' W 118°15'1 1.4
2016-Jul-26 18:33N 33°44' W 118°16'0 0.2
2016-Jul-26 17:33N 33°44' W 118°17'0 0.0
2016-Jul-26 16:12N 33°44' W 118°17'0 0.0
2016-Jul-26 15:30N 33°44' W 118°17'0 0.0
2016-Jul-26 11:31N 33°44' W 118°17'0 0.0
2016-Jul-26 08:31N 33°44' W 118°17'0 0.0
2016-Jul-26 07:07N 33°44' W 118°17'0 0.0
2016-Jul-26 03:33N 33°44' W 118°17'0 0.0
2016-Jul-26 02:25N 33°44' W 118°17'2 1.9
2016-Jul-26 01:10N 33°46' W 118°15'2 3.5
2016-Jul-26 00:33N 33°44' W 118°17'2 1.7
2016-Jul-25 23:30N 33°43' W 118°15'2 0.6
2016-Jul-25 20:33N 33°44' W 118°17'0 0.0
2016-Jul-25 19:32N 33°44' W 118°17'0 0.0
2016-Jul-25 04:07N 33°44' W 118°17'0 0.0
2016-Jul-25 03:32N 33°44' W 118°17'0 0.0
2016-Jul-25 02:16N 33°44' W 118°17'0 0.0
2016-Jul-25 00:17N 33°44' W 118°17'0 0.0
2016-Jul-24 23:33N 33°44' W 118°17'4 2.8
2016-Jul-24 22:15N 33°44' W 118°12'1 0.9
2016-Jul-24 21:07N 33°44' W 118°11'2 2.9
2016-Jul-24 20:31N 33°43' W 118°13'3 1.1
2016-Jul-24 18:07N 33°43' W 118°16'4 0.5
2016-Jul-24 10:07N 33°45' W 118°12'0 0.0
2016-Jul-24 09:29N 33°45' W 118°12'0 0.0
2016-Jul-24 08:33N 33°45' W 118°12'0 0.0
2016-Jul-24 07:11N 33°45' W 118°12'0 0.0
2016-Jul-24 06:08N 33°45' W 118°12'4 0.5
2016-Jul-23 22:30N 33°45' W 118°17'1 1.4
2016-Jul-23 21:32N 33°46' W 118°17'0 0.0
2016-Jul-23 20:32N 33°46' W 118°17'0 0.1
2016-Jul-23 19:33N 33°46' W 118°17'3 1.6
2016-Jul-23 17:32N 33°43' W 118°16'3 2.8
2016-Jul-23 16:31N 33°46' W 118°17'3 3.3
2016-Jul-23 15:33N 33°43' W 118°15'2 0.4
2016-Jul-23 11:31N 33°44' W 118°16'0 0.0
2016-Jul-23 02:20N 33°44' W 118°16'3 4.0
2016-Jul-23 01:31N 33°45' W 118°13'1 0.4
2016-Jul-22 22:33N 33°44' W 118°12'0 0.3
2016-Jul-22 21:24N 33°45' W 118°12'4 4.1
2016-Jul-22 20:32N 33°44' W 118°16'0 0.0
2016-Jul-22 18:31N 33°44' W 118°16'0 0.0
2016-Jul-22 17:18N 33°44' W 118°16'0 0.0
2016-Jul-22 16:28N 33°44' W 118°16'2 0.1
2016-Jul-21 23:22N 33°45' W 118°16'4 2.2
2016-Jul-21 21:32N 33°42' W 118°13'5 0.9
2016-Jul-21 16:03N 33°46' W 118°17'2 0.1
2016-Jul-20 22:32N 33°44' W 118°17'3 0.9
2016-Jul-20 18:33N 33°44' W 118°12'3 0.2
2016-Jul-20 00:14N 33°44' W 118°17'0 0.0
2016-Jul-19 23:14N 33°44' W 118°17'0 0.0
2016-Jul-19 22:29N 33°44' W 118°17'0 0.0
2016-Jul-19 21:29N 33°44' W 118°17'2 0.6
2016-Jul-19 18:33N 33°43' W 118°15'2 0.1
2016-Jul-19 03:20N 33°44' W 118°17'0 0.0
2016-Jul-19 02:20N 33°44' W 118°17'0 0.0
2016-Jul-19 01:27N 33°44' W 118°17'1 0.2
2016-Jul-18 20:33N 33°45' W 118°16'  
Track history (hours):
 
Tides and Currents Weather Stations Pressure Air Temp Water Temp Dewpoint Dewpoint Depression Visibility Wind Speed Wind Dir Waves Ship Positions

Independence

Owner: Sortwell, Inc. DBA AmNav Maritime Services, Oakland, CA. More information available from US FCC via Universal Licensing System and Coast Guard Vessel Documentation Center.

Last reported at 2016-Jul-28 10:30 UTC. Time now 2016-Jul-28 12:27 UTC.
Position N 33°44' W 118°17'.

Length 24 m; draft 4.9 m.

Type: Tug. MMSI: 367175860.

Date/timePositionNaut miles runAvg speedWind from/ knotsBaromVisibWave heightAir tempDewpointWater temp
2016-Jul-28 10:30N 33°44' W 118°17'0 0.0
2016-Jul-28 07:32N 33°44' W 118°17'0 0.0
2016-Jul-28 05:33N 33°44' W 118°17'0 0.0
2016-Jul-28 02:27N 33°44' W 118°17'0 0.0
2016-Jul-28 00:29N 33°44' W 118°17'0 0.0
2016-Jul-27 23:23N 33°44' W 118°17'0 0.0
2016-Jul-27 22:14N 33°44' W 118°17'0 0.0
2016-Jul-27 15:33N 33°44' W 118°17'0 0.0
2016-Jul-27 14:14N 33°44' W 118°17'5 6.8
2016-Jul-27 13:33N 33°44' W 118°11'2 1.7
2016-Jul-27 12:32N 33°44' W 118°09'6 6.2
2016-Jul-27 11:32N 33°43' W 118°16'0 0.4
2016-Jul-27 10:30N 33°44' W 118°16'0 0.0
2016-Jul-27 09:31N 33°44' W 118°16'0 0.0
2016-Jul-27 08:32N 33°44' W 118°16'0 0.0
2016-Jul-27 06:11N 33°44' W 118°16'0 0.0
2016-Jul-27 05:31N 33°44' W 118°16'0 0.0
2016-Jul-27 04:32N 33°44' W 118°16'0 0.1
2016-Jul-27 03:21N 33°44' W 118°17'0 0.0
2016-Jul-27 02:28N 33°44' W 118°17'0 0.0
2016-Jul-27 01:28N 33°44' W 118°17'0 0.0
2016-Jul-27 00:30N 33°44' W 118°17'0 0.0
2016-Jul-26 23:33N 33°44' W 118°17'0 0.0
2016-Jul-26 22:32N 33°44' W 118°17'2 1.8
2016-Jul-26 21:33N 33°46' W 118°16'2 2.0
2016-Jul-26 20:31N 33°43' W 118°16'1 1.1
2016-Jul-26 19:33N 33°43' W 118°15'1 1.4
2016-Jul-26 18:33N 33°44' W 118°16'0 0.2
2016-Jul-26 17:33N 33°44' W 118°17'0 0.0
2016-Jul-26 16:12N 33°44' W 118°17'0 0.0
2016-Jul-26 15:30N 33°44' W 118°17'0 0.0
2016-Jul-26 11:31N 33°44' W 118°17'0 0.0
2016-Jul-26 08:31N 33°44' W 118°17'0 0.0
2016-Jul-26 07:07N 33°44' W 118°17'0 0.0
2016-Jul-26 03:33N 33°44' W 118°17'0 0.0
2016-Jul-26 02:25N 33°44' W 118°17'2 1.9
2016-Jul-26 01:10N 33°46' W 118°15'2 3.5
2016-Jul-26 00:33N 33°44' W 118°17'2 1.7
2016-Jul-25 23:30N 33°43' W 118°15'2 0.6
2016-Jul-25 20:33N 33°44' W 118°17'0 0.0
2016-Jul-25 19:32N 33°44' W 118°17'0 0.0
2016-Jul-25 04:07N 33°44' W 118°17'0 0.0
2016-Jul-25 03:32N 33°44' W 118°17'0 0.0
2016-Jul-25 02:16N 33°44' W 118°17'0 0.0
2016-Jul-25 00:17N 33°44' W 118°17'0 0.0
2016-Jul-24 23:33N 33°44' W 118°17'4 2.8
2016-Jul-24 22:15N 33°44' W 118°12'1 0.9
2016-Jul-24 21:07N 33°44' W 118°11'2 2.9
2016-Jul-24 20:31N 33°43' W 118°13'3 1.1
2016-Jul-24 18:07N 33°43' W 118°16'4 0.5
2016-Jul-24 10:07N 33°45' W 118°12'0 0.0
2016-Jul-24 09:29N 33°45' W 118°12'0 0.0
2016-Jul-24 08:33N 33°45' W 118°12'0 0.0
2016-Jul-24 07:11N 33°45' W 118°12'0 0.0
2016-Jul-24 06:08N 33°45' W 118°12'4 0.5
2016-Jul-23 22:30N 33°45' W 118°17'1 1.4
2016-Jul-23 21:32N 33°46' W 118°17'0 0.0
2016-Jul-23 20:32N 33°46' W 118°17'0 0.1
2016-Jul-23 19:33N 33°46' W 118°17'3 1.6
2016-Jul-23 17:32N 33°43' W 118°16'3 2.8
2016-Jul-23 16:31N 33°46' W 118°17'3 3.3
2016-Jul-23 15:33N 33°43' W 118°15'2 0.4
2016-Jul-23 11:31N 33°44' W 118°16'0 0.0
2016-Jul-23 02:20N 33°44' W 118°16'3 4.0
2016-Jul-23 01:31N 33°45' W 118°13'1 0.4
2016-Jul-22 22:33N 33°44' W 118°12'0 0.3
2016-Jul-22 21:24N 33°45' W 118°12'4 4.1
2016-Jul-22 20:32N 33°44' W 118°16'0 0.0
2016-Jul-22 18:31N 33°44' W 118°16'0 0.0
2016-Jul-22 17:18N 33°44' W 118°16'0 0.0
2016-Jul-22 16:28N 33°44' W 118°16'2 0.1
2016-Jul-21 23:22N 33°45' W 118°16'4 2.2
2016-Jul-21 21:32N 33°42' W 118°13'5 0.9
2016-Jul-21 16:03N 33°46' W 118°17'2 0.1
2016-Jul-20 22:32N 33°44' W 118°17'3 0.9
2016-Jul-20 18:33N 33°44' W 118°12'3 0.2
2016-Jul-20 00:14N 33°44' W 118°17'0 0.0
2016-Jul-19 23:14N 33°44' W 118°17'0 0.0
2016-Jul-19 22:29N 33°44' W 118°17'0 0.0
2016-Jul-19 21:29N 33°44' W 118°17'2 0.6
2016-Jul-19 18:33N 33°43' W 118°15'2 0.1
2016-Jul-19 03:20N 33°44' W 118°17'0 0.0
2016-Jul-19 02:20N 33°44' W 118°17'0 0.0
2016-Jul-19 01:27N 33°44' W 118°17'1 0.2
2016-Jul-18 20:33N 33°45' W 118°16'  

Dump ship's entire track history